Time;durP1;ratioP1;P1;durP2;ratioP2;P2;SDS_P1;SDS_P2;PMS_P1;PMS_P2;Temp;Humidity;BMP_temperature;BMP_pressure;BME280_temperature;BME280_humidity;BME280_pressure;Samples;Min_cycle;Max_cycle;Signal;HPM_P1;HPM_P2
2022/06/29 00:00:57;;;;;;;5.40;2.70;;;19.60;1.00;;;;;;5098995;28;20470;-77
2022/06/29 00:03:24;;;;;;;6.93;2.80;;;19.60;1.00;;;;;;5094817;28;20716;-78
2022/06/29 00:05:56;;;;;;;5.70;2.57;;;19.50;1.00;;;;;;5080947;28;20426;-78
2022/06/29 00:08:26;;;;;;;5.77;2.57;;;19.60;1.00;;;;;;5096345;28;20449;-79
2022/06/29 00:10:55;;;;;;;5.60;2.67;;;19.60;1.00;;;;;;5100225;28;20435;-75
2022/06/29 00:13:26;;;;;;;11.10;3.10;;;19.60;1.00;;;;;;5091704;28;20432;-78
2022/06/29 00:15:52;;;;;;;6.40;2.97;;;19.50;1.00;;;;;;5096842;28;20583;-76
2022/06/29 00:18:22;;;;;;;6.20;2.60;;;19.50;1.00;;;;;;5094337;28;20450;-76
2022/06/29 00:20:49;;;;;;;5.83;2.50;;;19.50;1.00;;;;;;5058573;28;20533;-75
2022/06/29 00:23:17;;;;;;;6.00;2.80;;;19.40;1.00;;;;;;5076888;28;20463;-80
2022/06/29 00:25:46;;;;;;;6.80;2.97;;;19.40;1.00;;;;;;5076866;28;20493;-78
2022/06/29 00:28:15;;;;;;;9.30;3.00;;;19.30;1.00;;;;;;5076719;28;20412;-77
2022/06/29 00:30:46;;;;;;;7.10;3.47;;;19.40;1.00;;;;;;5080334;28;20721;-79
2022/06/29 00:33:16;;;;;;;7.33;3.83;;;19.30;1.00;;;;;;5076796;28;20427;-78
2022/06/29 00:35:46;;;;;;;5.87;2.47;;;19.30;1.00;;;;;;5073132;28;20458;-79
2022/06/29 00:38:15;;;;;;;6.27;2.97;;;19.30;1.00;;;;;;5077175;28;20459;-79
2022/06/29 00:40:46;;;;;;;6.33;3.07;;;19.30;1.00;;;;;;5076204;28;20439;-80
2022/06/29 00:43:13;;;;;;;6.43;3.20;;;19.30;1.00;;;;;;5076581;28;20584;-80
2022/06/29 00:45:41;;;;;;;6.10;3.17;;;19.30;1.00;;;;;;5079430;28;22037;-77
2022/06/29 00:48:09;;;;;;;6.53;2.97;;;19.30;1.00;;;;;;5074989;28;20485;-77
2022/06/29 00:50:39;;;;;;;5.67;2.57;;;19.30;1.00;;;;;;5076955;28;20495;-76
2022/06/29 00:53:07;;;;;;;7.60;3.20;;;19.30;1.00;;;;;;5075620;28;20455;-79
2022/06/29 00:55:40;;;;;;;6.00;3.00;;;19.30;1.00;;;;;;5073686;28;20426;-79
2022/06/29 00:58:16;;;;;;;7.77;3.00;;;19.30;1.00;;;;;;5079899;28;20463;-76
2022/06/29 01:00:44;;;;;;;6.50;3.00;;;19.20;1.00;;;;;;5070941;28;20552;-77
2022/06/29 01:03:19;;;;;;;5.50;2.60;;;19.20;1.00;;;;;;5077063;28;20438;-79
2022/06/29 01:05:47;;;;;;;6.43;3.33;;;19.20;1.00;;;;;;5072688;28;20462;-78
2022/06/29 01:08:16;;;;;;;7.43;3.07;;;19.20;1.00;;;;;;5076127;28;20531;-77
2022/06/29 01:10:43;;;;;;;6.27;3.10;;;19.10;1.00;;;;;;5079123;28;20457;-77
2022/06/29 01:13:15;;;;;;;6.10;2.97;;;19.10;1.00;;;;;;5081452;28;20452;-80
2022/06/29 01:15:42;;;;;;;7.03;3.60;;;19.10;1.00;;;;;;5072926;28;20491;-79
2022/06/29 01:18:11;;;;;;;6.30;3.10;;;19.00;1.00;;;;;;5071836;28;20898;-77
2022/06/29 01:20:40;;;;;;;6.50;2.90;;;19.00;1.00;;;;;;5073827;28;20450;-81
2022/06/29 01:23:09;;;;;;;5.77;2.70;;;19.10;1.00;;;;;;5082914;28;20500;-79
2022/06/29 01:25:36;;;;;;;7.70;3.30;;;19.10;1.00;;;;;;5090180;28;20430;-78
2022/06/29 01:28:03;;;;;;;5.97;2.90;;;19.00;1.00;;;;;;5094673;28;20617;-77
2022/06/29 01:30:35;;;;;;;6.27;3.00;;;19.00;1.00;;;;;;5092679;28;20466;-78
2022/06/29 01:33:02;;;;;;;6.00;2.93;;;19.00;1.00;;;;;;5091576;28;20458;-78
2022/06/29 01:35:29;;;;;;;5.63;2.70;;;19.00;1.00;;;;;;5092938;28;20517;-79
2022/06/29 01:37:56;;;;;;;10.30;4.00;;;19.00;1.00;;;;;;5098413;28;20414;-79
2022/06/29 01:40:25;;;;;;;6.40;3.00;;;18.90;1.00;;;;;;5100550;28;20621;-76
2022/06/29 01:42:56;;;;;;;6.83;3.07;;;18.90;1.00;;;;;;5093565;28;20470;-76
2022/06/29 01:45:23;;;;;;;6.30;3.00;;;18.80;1.00;;;;;;5094163;28;20494;-77
2022/06/29 01:47:54;;;;;;;5.43;2.50;;;18.80;1.00;;;;;;5092856;28;20782;-80
2022/06/29 01:50:21;;;;;;;5.87;2.83;;;18.80;1.00;;;;;;5096260;28;20468;-77
2022/06/29 01:52:48;;;;;;;5.90;2.90;;;18.80;1.00;;;;;;5094837;28;20449;-79
2022/06/29 01:55:16;;;;;;;6.53;3.07;;;18.80;1.00;;;;;;5100826;28;20411;-78
2022/06/29 01:57:45;;;;;;;6.80;3.30;;;18.80;1.00;;;;;;5092301;28;20453;-77
2022/06/29 02:00:16;;;;;;;7.37;2.80;;;18.80;1.00;;;;;;5094321;28;20434;-76
2022/06/29 02:02:43;;;;;;;7.13;2.90;;;18.70;1.00;;;;;;5093000;28;20453;-77
2022/06/29 02:05:14;;;;;;;5.73;2.60;;;18.70;1.00;;;;;;5094449;28;20818;-78
2022/06/29 02:07:41;;;;;;;7.10;3.53;;;18.70;1.00;;;;;;5095574;28;20470;-79
2022/06/29 02:10:11;;;;;;;6.50;3.27;;;18.70;1.00;;;;;;5096430;28;20466;-80
2022/06/29 02:12:38;;;;;;;7.40;3.73;;;18.70;1.00;;;;;;5095424;28;20419;-78
2022/06/29 02:15:08;;;;;;;5.90;2.73;;;18.60;1.00;;;;;;5092918;28;20462;-79
2022/06/29 02:17:35;;;;;;;9.13;3.30;;;18.60;1.00;;;;;;5088817;28;20502;-79
2022/06/29 02:20:02;;;;;;;7.30;3.27;;;18.60;1.00;;;;;;5090145;28;20430;-77
2022/06/29 02:22:32;;;;;;;7.83;3.20;;;18.50;1.00;;;;;;5090234;28;20458;-78
2022/06/29 02:24:58;;;;;;;5.77;2.93;;;18.50;1.00;;;;;;5092135;28;20509;-79
2022/06/29 02:27:27;;;;;;;5.57;2.90;;;18.40;1.00;;;;;;5095805;28;20943;-78
2022/06/29 02:29:56;;;;;;;7.13;3.07;;;18.40;1.00;;;;;;5095694;28;20455;-79
2022/06/29 02:35:11;;;;;;;7.43;3.00;;;18.40;1.00;;;;;;5094273;28;20450;-76
2022/06/29 02:37:43;;;;;;;6.70;3.03;;;18.40;1.00;;;;;;5100283;28;20814;-80
2022/06/29 02:40:10;;;;;;;6.70;3.30;;;18.30;1.00;;;;;;5098494;28;20462;-79
2022/06/29 02:42:47;;;;;;;7.87;3.20;;;18.30;1.00;;;;;;5099616;28;20455;-78
2022/06/29 02:45:14;;;;;;;8.43;3.10;;;18.30;1.00;;;;;;5093391;28;20920;-79
2022/06/29 02:47:43;;;;;;;7.80;3.40;;;18.20;1.00;;;;;;5097972;28;20417;-78
2022/06/29 02:50:10;;;;;;;6.40;3.43;;;18.20;1.00;;;;;;5099367;28;20905;-77
2022/06/29 02:52:42;;;;;;;8.37;3.63;;;18.20;1.00;;;;;;5098128;28;20431;-76
2022/06/29 02:55:10;;;;;;;12.03;4.20;;;18.20;1.00;;;;;;5096738;28;20557;-79
2022/06/29 02:57:40;;;;;;;7.03;3.97;;;18.20;1.00;;;;;;5087479;28;21069;-76
2022/06/29 03:00:09;;;;;;;7.77;4.30;;;18.30;1.00;;;;;;5096925;28;20858;-77
2022/06/29 03:02:40;;;;;;;7.30;3.67;;;18.30;1.00;;;;;;5094136;28;20450;-76
2022/06/29 03:05:10;;;;;;;10.13;3.60;;;18.30;1.00;;;;;;5077138;28;20459;-79
2022/06/29 03:07:42;;;;;;;6.40;3.23;;;18.30;1.00;;;;;;5088079;28;20490;-79
2022/06/29 03:10:09;;;;;;;6.80;3.50;;;18.30;1.00;;;;;;5093919;28;20443;-79
2022/06/29 03:12:38;;;;;;;9.40;3.60;;;18.30;1.00;;;;;;5084542;28;20473;-80
2022/06/29 03:15:07;;;;;;;7.03;3.87;;;18.30;1.00;;;;;;5099576;28;20466;-79
2022/06/29 03:17:34;;;;;;;7.20;3.60;;;18.20;1.00;;;;;;5093585;28;20508;-80
2022/06/29 03:20:04;;;;;;;8.33;3.63;;;18.10;1.00;;;;;;5100450;28;20439;-77
2022/06/29 03:22:32;;;;;;;6.50;3.40;;;18.10;1.00;;;;;;5095063;28;21266;-77
2022/06/29 03:25:03;;;;;;;8.20;3.07;;;18.10;1.00;;;;;;5087139;28;21028;-79
2022/06/29 03:27:33;;;;;;;6.77;3.40;;;18.10;1.00;;;;;;5085466;28;20592;-77
2022/06/29 03:30:02;;;;;;;7.07;3.37;;;18.00;1.00;;;;;;5095832;28;20434;-80
2022/06/29 03:32:29;;;;;;;6.37;3.10;;;18.00;1.00;;;;;;5098687;28;20597;-79
2022/06/29 03:34:58;;;;;;;11.73;3.63;;;18.00;1.00;;;;;;5097037;28;21015;-76
2022/06/29 03:37:26;;;;;;;7.77;3.53;;;18.00;1.00;;;;;;5092119;28;20450;-78
2022/06/29 03:39:54;;;;;;;8.77;3.23;;;18.00;1.00;;;;;;5098524;28;20909;-77
2022/06/29 03:42:22;;;;;;;7.63;4.10;;;18.00;1.00;;;;;;5094827;28;20445;-77
2022/06/29 03:44:49;;;;;;;9.13;3.67;;;18.00;1.00;;;;;;5082037;28;20488;-81
2022/06/29 03:47:22;;;;;;;6.10;3.10;;;18.10;1.00;;;;;;5094747;28;21004;-77
2022/06/29 03:49:49;;;;;;;7.37;3.20;;;18.20;1.00;;;;;;5098902;28;20489;-78
2022/06/29 03:52:21;;;;;;;6.27;3.23;;;18.20;1.00;;;;;;5090822;28;20442;-76
2022/06/29 03:54:48;;;;;;;13.03;3.90;;;18.20;1.00;;;;;;5086943;28;21063;-77
2022/06/29 03:57:21;;;;;;;5.80;3.17;;;18.30;1.00;;;;;;5085777;28;20439;-77
2022/06/29 03:59:48;;;;;;;6.70;3.33;;;18.30;1.00;;;;;;5082711;28;20458;-77
2022/06/29 04:02:14;;;;;;;11.13;3.70;;;18.30;1.00;;;;;;5095198;28;20473;-79
2022/06/29 04:04:44;;;;;;;6.60;2.93;;;18.40;1.00;;;;;;5087453;28;20436;-80
2022/06/29 04:07:11;;;;;;;7.20;3.70;;;18.50;1.00;;;;;;5091820;28;20455;-80
2022/06/29 04:09:42;;;;;;;7.13;4.07;;;18.50;1.00;;;;;;5091495;28;20465;-78
2022/06/29 04:12:09;;;;;;;6.20;3.00;;;18.60;1.00;;;;;;5094293;28;20490;-76
2022/06/29 04:14:42;;;;;;;6.43;3.00;;;18.70;1.00;;;;;;5086441;28;20950;-80
2022/06/29 04:17:09;;;;;;;6.90;3.50;;;18.70;1.00;;;;;;5084707;28;20482;-79
2022/06/29 04:19:37;;;;;;;7.23;3.87;;;18.70;1.00;;;;;;5092253;28;20557;-77
2022/06/29 04:22:04;;;;;;;7.90;3.80;;;18.80;1.00;;;;;;5097747;28;20460;-79
2022/06/29 04:24:32;;;;;;;6.70;3.20;;;18.90;1.00;;;;;;5091187;28;20464;-76
2022/06/29 04:27:03;;;;;;;6.50;2.90;;;19.00;1.00;;;;;;5095006;28;20498;-77
2022/06/29 04:29:30;;;;;;;7.53;3.93;;;19.10;1.00;;;;;;5093158;28;20553;-78
2022/06/29 04:32:03;;;;;;;9.33;3.33;;;19.10;1.00;;;;;;5095961;28;20426;-80
2022/06/29 04:34:30;;;;;;;6.60;3.60;;;19.20;1.00;;;;;;5088895;28;20459;-81
2022/06/29 04:37:02;;;;;;;5.63;2.97;;;19.30;1.00;;;;;;5093524;28;20486;-81
2022/06/29 04:39:30;;;;;;;8.07;4.27;;;19.40;1.00;;;;;;5086648;28;20434;-80
2022/06/29 04:42:08;;;;;;;8.07;4.13;;;19.40;1.00;;;;;;5098517;28;20458;-81
2022/06/29 04:44:35;;;;;;;6.80;3.40;;;19.50;1.00;;;;;;5092549;28;20903;-78
2022/06/29 04:47:03;;;;;;;7.20;3.73;;;19.50;1.00;;;;;;5086615;28;20542;-78
2022/06/29 04:49:30;;;;;;;6.60;3.40;;;19.50;1.00;;;;;;5086082;28;20443;-77
2022/06/29 04:51:57;;;;;;;6.60;3.53;;;19.50;1.00;;;;;;5087607;28;20520;-78
2022/06/29 04:54:24;;;;;;;8.30;3.87;;;19.60;1.00;;;;;;5089425;28;20458;-79
2022/06/29 04:56:52;;;;;;;8.20;3.93;;;19.70;1.00;;;;;;5086682;28;20461;-75
2022/06/29 04:59:19;;;;;;;7.00;3.20;;;19.70;1.00;;;;;;5087650;28;20478;-77
2022/06/29 05:01:47;;;;;;;7.17;4.10;;;19.60;1.00;;;;;;5087354;28;20537;-76
2022/06/29 05:04:16;;;;;;;8.60;4.10;;;19.70;1.00;;;;;;5067040;28;21013;-77
2022/06/29 05:06:43;;;;;;;6.87;3.77;;;19.70;1.00;;;;;;5091238;28;20567;-83
2022/06/29 05:09:13;;;;;;;6.70;3.73;;;19.70;1.00;;;;;;5092517;28;20637;-80
2022/06/29 05:11:45;;;;;;;9.50;3.87;;;19.70;1.00;;;;;;5095746;28;20498;-83
2022/06/29 05:14:12;;;;;;;9.90;3.50;;;19.70;1.00;;;;;;5096932;28;20458;-82
2022/06/29 05:16:44;;;;;;;8.30;3.27;;;19.70;1.00;;;;;;5099381;28;20441;-82
2022/06/29 05:19:11;;;;;;;7.40;3.57;;;19.80;1.00;;;;;;5097857;28;20929;-82
2022/06/29 05:21:44;;;;;;;10.77;4.23;;;19.70;1.00;;;;;;5081365;28;20431;-79
2022/06/29 05:24:11;;;;;;;7.60;4.13;;;19.70;1.00;;;;;;5075991;28;21455;-80
2022/06/29 05:26:42;;;;;;;6.33;3.43;;;19.70;1.00;;;;;;5087566;28;20449;-82
2022/06/29 05:29:09;;;;;;;9.07;3.80;;;19.80;1.00;;;;;;5076854;28;20466;-77
2022/06/29 05:31:38;;;;;;;7.57;3.37;;;20.00;1.00;;;;;;5097298;28;20484;-76
2022/06/29 05:34:06;;;;;;;7.67;3.63;;;20.10;1.00;;;;;;5091900;28;20468;-77
2022/06/29 05:36:33;;;;;;;6.73;3.30;;;20.30;1.00;;;;;;5098355;28;21028;-82
2022/06/29 05:39:05;;;;;;;7.60;3.50;;;20.40;1.00;;;;;;5102256;28;20439;-82
2022/06/29 05:41:31;;;;;;;7.50;5.20;;;20.50;1.00;;;;;;5096176;28;20429;-76
2022/06/29 05:44:10;;;;;;;8.20;4.27;;;20.70;1.00;;;;;;5099281;28;20431;-84
2022/06/29 05:46:41;;;;;;;8.63;3.80;;;20.70;1.00;;;;;;5058269;28;20450;-79
2022/06/29 05:49:08;;;;;;;6.37;3.07;;;20.90;1.00;;;;;;5053866;28;20444;-82
2022/06/29 05:51:35;;;;;;;6.47;3.50;;;20.90;1.00;;;;;;5042651;28;20455;-81
2022/06/29 05:54:04;;;;;;;6.40;3.10;;;21.10;1.00;;;;;;5060819;28;20452;-77
2022/06/29 05:56:31;;;;;;;6.60;2.80;;;21.10;1.00;;;;;;5031987;28;20473;-79
2022/06/29 05:59:06;;;;;;;6.30;3.07;;;21.20;1.00;;;;;;5042324;28;20472;-78
2022/06/29 06:01:33;;;;;;;6.73;3.47;;;21.40;1.00;;;;;;5060284;28;20451;-84
2022/06/29 06:04:03;;;;;;;6.43;2.93;;;21.50;1.00;;;;;;5059116;28;20500;-79
2022/06/29 06:06:30;;;;;;;6.43;3.03;;;21.50;1.00;;;;;;5061004;28;20527;-80
2022/06/29 06:09:01;;;;;;;7.73;3.10;;;21.60;1.00;;;;;;5061269;28;20526;-82
2022/06/29 06:11:30;;;;;;;5.87;2.70;;;21.60;1.00;;;;;;5049641;28;20465;-79
2022/06/29 06:14:02;;;;;;;6.70;3.00;;;21.70;1.00;;;;;;5039667;28;20460;-80
2022/06/29 06:16:29;;;;;;;7.90;3.10;;;21.80;1.00;;;;;;5042435;28;20527;-84
2022/06/29 06:19:01;;;;;;;6.97;3.10;;;22.00;1.00;;;;;;5052793;28;20603;-85
2022/06/29 06:21:28;;;;;;;6.20;2.97;;;22.20;1.00;;;;;;5052865;28;20510;-80
2022/06/29 06:23:55;;;;;;;6.93;2.93;;;22.40;1.00;;;;;;5051301;28;20457;-84
2022/06/29 06:26:23;;;;;;;6.47;2.57;;;22.60;1.00;;;;;;5060200;28;20521;-83
2022/06/29 06:28:53;;;;;;;5.70;3.00;;;22.80;1.00;;;;;;5050423;28;20607;-83
2022/06/29 06:31:24;;;;;;;5.33;2.50;;;22.80;1.00;;;;;;5059739;28;20470;-78
2022/06/29 06:33:50;;;;;;;7.70;2.83;;;22.80;1.00;;;;;;5054110;28;20978;-79
2022/06/29 06:36:22;;;;;;;7.00;2.80;;;22.80;1.00;;;;;;5059691;28;20416;-80
2022/06/29 06:38:49;;;;;;;5.77;2.50;;;22.70;1.00;;;;;;5056012;28;20427;-82
2022/06/29 06:41:22;;;;;;;6.03;2.50;;;22.70;1.00;;;;;;5056530;28;20960;-82
2022/06/29 06:43:49;;;;;;;7.93;3.13;;;22.90;1.00;;;;;;5043836;28;20548;-82
2022/06/29 06:46:23;;;;;;;9.20;2.57;;;23.10;1.00;;;;;;5083511;28;20848;-77
2022/06/29 06:48:51;;;;;;;6.20;2.47;;;23.30;1.00;;;;;;5092175;28;20458;-83
2022/06/29 06:51:23;;;;;;;7.03;2.40;;;23.30;1.00;;;;;;5099202;28;20454;-82
2022/06/29 06:53:50;;;;;;;6.80;2.37;;;23.30;1.00;;;;;;5104269;28;20425;-83
2022/06/29 06:56:25;;;;;;;6.43;2.47;;;23.30;1.00;;;;;;5105961;28;20615;-83
2022/06/29 06:58:52;;;;;;;6.87;2.47;;;23.50;1.00;;;;;;5103949;28;20882;-78
2022/06/29 07:01:24;;;;;;;8.60;2.87;;;23.60;1.00;;;;;;5094359;28;20445;-80
2022/06/29 07:03:51;;;;;;;6.50;2.50;;;23.60;1.00;;;;;;5094169;28;20935;-84
2022/06/29 07:06:23;;;;;;;7.23;3.03;;;23.70;1.00;;;;;;5100505;28;20446;-79
2022/06/29 07:08:50;;;;;;;6.83;2.97;;;23.80;1.00;;;;;;5096658;28;20437;-81
2022/06/29 07:11:21;;;;;;;6.20;2.37;;;24.00;1.00;;;;;;5099637;28;20950;-82
2022/06/29 07:13:48;;;;;;;11.07;3.00;;;24.10;1.00;;;;;;5096994;28;20986;-81
2022/06/29 07:16:15;;;;;;;7.10;2.67;;;24.20;1.00;;;;;;5087281;28;20542;-78
2022/06/29 07:18:45;;;;;;;8.13;2.37;;;24.40;1.00;;;;;;5095087;28;20490;-80
2022/06/29 07:21:12;;;;;;;8.30;2.57;;;24.40;1.00;;;;;;5100187;28;20453;-81
2022/06/29 07:23:43;;;;;;;9.53;2.97;;;24.60;1.00;;;;;;5087185;28;20507;-78
2022/06/29 07:26:10;;;;;;;6.67;2.20;;;24.60;1.00;;;;;;5088081;28;20477;-78
2022/06/29 07:28:41;;;;;;;7.37;2.00;;;24.50;1.00;;;;;;5090295;28;20546;-82
2022/06/29 07:31:08;;;;;;;5.70;2.17;;;24.70;1.00;;;;;;5097324;28;20430;-81
2022/06/29 07:33:35;;;;;;;7.07;2.00;;;24.70;1.00;;;;;;5102073;28;20429;-80
2022/06/29 07:36:05;;;;;;;6.00;2.00;;;24.70;1.00;;;;;;5096186;28;20427;-79
2022/06/29 07:38:32;;;;;;;5.30;1.70;;;24.70;1.00;;;;;;5095058;28;21183;-81
2022/06/29 07:41:02;;;;;;;5.87;1.70;;;24.50;1.00;;;;;;5095540;28;20428;-82
2022/06/29 07:43:30;;;;;;;5.13;1.70;;;24.40;1.00;;;;;;5088161;28;20498;-82
2022/06/29 07:46:03;;;;;;;6.07;2.00;;;24.50;1.00;;;;;;5086323;28;20468;-78
2022/06/29 07:48:30;;;;;;;5.43;1.30;;;24.50;1.00;;;;;;5086794;28;20578;-82
2022/06/29 07:51:02;;;;;;;5.93;1.70;;;24.40;1.00;;;;;;5082724;28;20891;-79
2022/06/29 07:53:32;;;;;;;6.40;1.70;;;24.30;1.00;;;;;;5076239;28;20533;-84
2022/06/29 07:56:03;;;;;;;7.30;2.53;;;24.50;1.00;;;;;;5076342;28;20460;-84
2022/06/29 07:58:33;;;;;;;5.40;1.63;;;24.70;1.00;;;;;;5089882;28;21710;-82
2022/06/29 08:01:03;;;;;;;6.07;1.90;;;24.60;1.00;;;;;;5078514;28;20625;-79
2022/06/29 08:03:32;;;;;;;5.60;2.10;;;24.70;1.00;;;;;;5061447;28;20597;-79
2022/06/29 08:06:05;;;;;;;6.07;1.60;;;24.80;1.00;;;;;;5092249;28;20411;-78
2022/06/29 08:08:34;;;;;;;8.37;1.97;;;24.70;1.00;;;;;;5078828;28;20471;-80
2022/06/29 08:11:06;;;;;;;5.33;1.40;;;24.80;1.00;;;;;;5076611;28;20408;-77
2022/06/29 08:13:33;;;;;;;6.03;1.50;;;24.80;1.00;;;;;;5077037;28;21005;-78
2022/06/29 08:16:08;;;;;;;5.03;1.33;;;24.90;1.00;;;;;;5082999;28;20475;-83
2022/06/29 08:18:36;;;;;;;5.93;1.70;;;25.00;1.00;;;;;;5079394;28;20616;-80
2022/06/29 08:21:04;;;;;;;5.20;1.77;;;25.10;1.00;;;;;;5080283;28;20438;-79
2022/06/29 08:23:31;;;;;;;5.70;1.93;;;25.30;1.00;;;;;;5079357;28;20466;-78
2022/06/29 08:26:07;;;;;;;5.43;1.57;;;25.30;1.00;;;;;;5082307;28;20927;-80
2022/06/29 08:28:34;;;;;;;5.33;1.70;;;25.50;1.00;;;;;;5081925;28;20532;-82
2022/06/29 08:31:03;;;;;;;6.10;1.57;;;25.10;1.00;;;;;;5079465;28;20451;-85
2022/06/29 08:33:30;;;;;;;4.93;1.60;;;25.00;1.00;;;;;;5049281;28;20460;-84
2022/06/29 08:36:02;;;;;;;5.67;1.40;;;25.30;1.00;;;;;;5059558;28;20464;-77
2022/06/29 08:38:29;;;;;;;4.80;1.40;;;25.70;1.00;;;;;;5057845;28;21053;-80
2022/06/29 08:41:06;;;;;;;6.50;1.93;;;25.80;1.00;;;;;;5061681;28;20437;-85
2022/06/29 08:43:33;;;;;;;4.67;1.40;;;26.20;1.00;;;;;;5057446;28;20448;-83
2022/06/29 08:46:04;;;;;;;5.07;1.60;;;26.70;1.00;;;;;;5084007;28;20441;-79
2022/06/29 08:48:31;;;;;;;5.97;3.00;;;26.80;1.00;;;;;;5093949;28;20555;-79
2022/06/29 08:50:59;;;;;;;5.67;1.90;;;26.80;1.00;;;;;;5092794;28;20530;-79
2022/06/29 08:53:26;;;;;;;5.00;1.63;;;27.30;1.00;;;;;;5091657;28;20458;-79
2022/06/29 08:55:56;;;;;;;7.00;1.70;;;27.50;1.00;;;;;;5092321;28;20516;-78
2022/06/29 08:58:25;;;;;;;5.67;1.80;;;27.70;1.00;;;;;;5089135;28;20485;-79
2022/06/29 09:00:53;;;;;;;4.70;1.57;;;27.90;1.00;;;;;;5091947;28;20922;-79
2022/06/29 09:03:21;;;;;;;8.30;2.70;;;28.10;1.00;;;;;;5094163;28;21054;-78
2022/06/29 09:05:49;;;;;;;5.47;1.93;;;28.30;1.00;;;;;;5073456;28;20610;-78
2022/06/29 09:08:17;;;;;;;9.37;1.97;;;28.50;1.00;;;;;;5079607;28;20475;-79
2022/06/29 09:10:44;;;;;;;5.53;1.33;;;28.50;1.00;;;;;;5091888;28;20478;-79
2022/06/29 09:13:18;;;;;;;5.57;1.47;;;28.30;1.00;;;;;;5094225;28;20430;-79
2022/06/29 09:15:47;;;;;;;4.93;1.50;;;27.90;1.00;;;;;;5091066;28;20805;-77
2022/06/29 09:18:25;;;;;;;5.50;1.90;;;28.00;1.00;;;;;;5092568;28;20857;-79
2022/06/29 09:20:56;;;;;;;6.03;1.97;;;27.70;1.00;;;;;;5090801;28;20434;-80
2022/06/29 09:23:24;;;;;;;5.90;1.80;;;27.80;1.00;;;;;;5092001;28;20458;-78
2022/06/29 09:25:54;;;;;;;6.73;1.90;;;27.50;1.00;;;;;;5102828;28;20546;-81
2022/06/29 09:28:23;;;;;;;4.90;1.87;;;27.50;1.00;;;;;;5098443;28;20486;-79
2022/06/29 09:30:52;;;;;;;6.30;1.83;;;27.50;1.00;;;;;;5092568;28;20548;-78
2022/06/29 09:33:24;;;;;;;6.83;1.80;;;27.60;1.00;;;;;;5096809;28;20528;-80
2022/06/29 09:36:09;;;;;;;5.40;1.80;;;27.80;1.00;;;;;;5094853;28;20811;-77
2022/06/29 09:38:37;;;;;;;6.10;1.90;;;27.80;1.00;;;;;;5097010;28;20962;-77
2022/06/29 09:41:09;;;;;;;6.00;1.83;;;27.40;1.00;;;;;;5086971;28;20643;-77
2022/06/29 09:43:37;;;;;;;5.23;2.00;;;27.40;1.00;;;;;;5099697;28;20463;-77
2022/06/29 09:46:10;;;;;;;6.20;2.20;;;27.40;1.00;;;;;;5098894;28;20415;-79
2022/06/29 09:48:46;;;;;;;5.73;2.10;;;27.80;1.00;;;;;;5077920;28;20477;-81
2022/06/29 09:51:31;;;;;;;5.67;1.90;;;29.10;1.00;;;;;;5099707;28;20450;-79
2022/06/29 09:54:07;;;;;;;4.93;1.70;;;30.60;1.00;;;;;;5100295;28;20926;-81
2022/06/29 09:56:35;;;;;;;5.27;1.67;;;31.30;1.00;;;;;;5096708;28;20483;-80
2022/06/29 09:59:09;;;;;;;4.90;1.40;;;31.90;1.00;;;;;;5104342;28;20447;-81
2022/06/29 10:04:28;;;;;;;4.47;1.47;;;30.80;1.00;;;;;;5095910;28;20470;-78
2022/06/29 10:06:55;;;;;;;5.93;2.50;;;30.00;1.00;;;;;;5100680;28;20455;-81
2022/06/29 10:09:25;;;;;;;5.70;1.50;;;29.50;1.00;;;;;;5103812;28;20475;-78
2022/06/29 10:15:06;;;;;;;5.70;1.60;;;29.90;1.00;;;;;;5090801;28;21103;-79
2022/06/29 10:17:47;;;;;;;5.90;1.60;;;29.70;1.00;;;;;;5094696;28;20455;-80
2022/06/29 10:20:47;;;;;;;6.87;1.80;;;28.30;1.00;;;;;;5100180;28;20929;-82
2022/06/29 10:23:48;;;;;;;7.17;1.77;;;27.70;1.00;;;;;;5093488;28;20447;-79
2022/06/29 10:26:49;;;;;;;7.83;2.20;;;27.70;1.00;;;;;;5097354;28;20459;-77
2022/06/29 10:29:31;;;;;;;10.03;2.13;;;27.60;1.00;;;;;;5098058;28;20601;-79
2022/06/29 10:32:16;;;;;;;7.23;1.70;;;27.20;1.00;;;;;;5097318;28;20548;-79
2022/06/29 10:37:52;;;;;;;5.50;1.60;;;27.10;1.00;;;;;;5046677;28;20442;-77
2022/06/29 10:40:30;;;;;;;5.20;1.63;;;27.30;1.00;;;;;;5096073;28;20645;-77
2022/06/29 10:43:08;;;;;;;6.70;2.27;;;27.20;1.00;;;;;;5097069;28;20985;-78
2022/06/29 10:45:47;;;;;;;6.37;1.90;;;27.20;1.00;;;;;;5097001;28;20489;-78
2022/06/29 10:48:21;;;;;;;5.20;1.57;;;27.20;1.00;;;;;;5096710;28;20512;-79
2022/06/29 10:50:50;;;;;;;6.50;2.93;;;27.10;1.00;;;;;;5072635;28;20442;-78
2022/06/29 10:53:19;;;;;;;5.90;1.57;;;27.30;1.00;;;;;;5098739;28;20467;-77
2022/06/29 10:55:50;;;;;;;4.90;1.77;;;27.40;1.00;;;;;;5085194;28;20426;-78
2022/06/29 10:58:18;;;;;;;5.17;1.63;;;27.60;1.00;;;;;;5102217;28;20547;-78
2022/06/29 11:00:50;;;;;;;5.63;2.60;;;27.80;1.00;;;;;;5103822;28;20391;-81
2022/06/29 11:03:19;;;;;;;4.93;1.90;;;28.00;1.00;;;;;;5102543;28;20911;-78
2022/06/29 11:15:39;;;;;;;5.43;2.50;;;29.30;1.00;;;;;;5103286;28;20440;-77
2022/06/29 11:16:57;;;;;;;6.87;1.87;;;29.10;1.00;;;;;;5097272;28;20971;-79
2022/06/29 11:19:33;;;;;;;5.63;1.57;;;28.90;1.00;;;;;;5102373;28;20466;-79
2022/06/29 11:22:17;;;;;;;4.67;1.30;;;28.50;1.00;;;;;;5098840;28;20532;-79
2022/06/29 11:24:54;;;;;;;7.50;1.70;;;27.90;1.00;;;;;;5104792;28;20437;-80
2022/06/29 11:27:33;;;;;;;5.07;1.60;;;28.20;1.00;;;;;;5094863;28;21029;-81
2022/06/29 11:30:00;;;;;;;9.10;2.00;;;29.30;1.00;;;;;;5099760;28;20976;-78
2022/06/29 11:32:38;;;;;;;6.00;1.87;;;30.50;1.00;;;;;;5103616;28;20411;-78
2022/06/29 11:35:10;;;;;;;8.10;2.63;;;30.40;1.00;;;;;;5099740;28;20987;-79
2022/06/29 11:37:39;;;;;;;8.23;1.30;;;29.50;1.00;;;;;;5097963;28;21051;-78
2022/06/29 11:40:09;;;;;;;5.50;1.60;;;29.00;1.00;;;;;;5104337;28;20442;-82
2022/06/29 11:45:29;;;;;;;4.53;1.23;;;27.80;1.00;;;;;;5104564;28;20427;-82
2022/06/29 11:47:56;;;;;;;6.10;2.60;;;27.90;1.00;;;;;;5101422;27;21053;-78
2022/06/29 11:50:26;;;;;;;4.50;1.33;;;27.90;1.00;;;;;;5097738;28;20528;-80
2022/06/29 11:52:56;;;;;;;4.80;1.50;;;28.00;1.00;;;;;;5099322;28;20462;-80
2022/06/29 11:55:48;;;;;;;4.87;1.60;;;28.40;1.00;;;;;;5100970;28;20507;-79
2022/06/29 11:58:16;;;;;;;7.23;2.57;;;28.80;1.00;;;;;;5098538;28;20930;-79
2022/06/29 12:00:48;;;;;;;5.33;1.70;;;29.20;1.00;;;;;;5104369;28;20708;-82
2022/06/29 12:03:16;;;;;;;5.93;2.77;;;29.80;1.00;;;;;;5103056;28;20497;-83
2022/06/29 12:05:57;;;;;;;4.77;1.20;;;30.60;1.00;;;;;;5086953;28;20435;-78
2022/06/29 12:08:30;;;;;;;6.50;1.70;;;30.90;1.00;;;;;;5100375;28;20450;-77
2022/06/29 12:10:58;;;;;;;5.63;1.60;;;30.40;1.00;;;;;;5099193;28;20457;-77
2022/06/29 12:13:28;;;;;;;5.30;1.60;;;29.80;1.00;;;;;;5099026;28;20425;-78
2022/06/29 12:15:56;;;;;;;4.70;1.40;;;30.10;1.00;;;;;;5102024;28;20469;-77
2022/06/29 12:18:28;;;;;;;7.03;1.90;;;30.40;1.00;;;;;;5098823;27;20824;-78
2022/06/29 12:20:54;;;;;;;5.03;1.53;;;30.40;1.00;;;;;;5102506;28;20873;-75
2022/06/29 12:23:23;;;;;;;6.23;2.53;;;30.50;1.00;;;;;;5099812;28;20993;-77
2022/06/29 12:25:55;;;;;;;5.27;1.77;;;30.40;1.00;;;;;;5100992;28;20528;-80
2022/06/29 12:28:23;;;;;;;5.60;1.90;;;30.40;1.00;;;;;;5101420;28;20493;-79
2022/06/29 12:30:52;;;;;;;5.77;2.20;;;30.30;1.00;;;;;;5087762;28;20467;-78
2022/06/29 12:33:19;;;;;;;4.93;1.57;;;30.80;1.00;;;;;;5095382;28;20598;-79
2022/06/29 12:35:48;;;;;;;5.00;1.50;;;30.90;1.00;;;;;;5098395;28;21266;-78
2022/06/29 12:38:15;;;;;;;8.50;1.50;;;31.00;1.00;;;;;;5103280;28;20482;-80
2022/06/29 12:40:44;;;;;;;9.23;1.63;;;31.00;1.00;;;;;;5100953;28;20497;-78
2022/06/29 12:43:13;;;;;;;5.47;2.10;;;30.50;1.00;;;;;;5101073;28;20506;-79
2022/06/29 12:45:39;;;;;;;5.07;2.10;;;29.70;1.00;;;;;;5099594;28;20557;-77
2022/06/29 12:48:11;;;;;;;5.00;1.37;;;29.40;1.00;;;;;;5100522;28;20427;-82
2022/06/29 12:50:37;;;;;;;4.83;1.63;;;28.60;1.00;;;;;;5100915;28;20422;-78
2022/06/29 12:53:08;;;;;;;4.73;1.20;;;28.00;1.00;;;;;;5101853;28;20426;-78
2022/06/29 12:55:35;;;;;;;5.87;1.93;;;28.10;1.00;;;;;;5099288;28;20515;-82
2022/06/29 12:58:08;;;;;;;116.83;36.13;;;28.10;1.00;;;;;;5100675;28;20466;-77
2022/06/29 13:00:37;;;;;;;5.60;2.03;;;28.20;1.00;;;;;;5077305;28;20475;-79
2022/06/29 13:03:09;;;;;;;6.30;1.50;;;28.30;1.00;;;;;;5105840;28;20407;-82
2022/06/29 13:05:36;;;;;;;4.40;1.20;;;28.90;1.00;;;;;;5096870;28;20487;-81
2022/06/29 13:08:08;;;;;;;6.10;1.70;;;29.80;1.00;;;;;;5099601;28;20463;-80
2022/06/29 13:10:35;;;;;;;4.97;1.83;;;30.10;1.00;;;;;;5095413;28;20482;-77
2022/06/29 13:13:08;;;;;;;7.27;1.40;;;30.30;1.00;;;;;;5100035;28;20475;-80
2022/06/29 13:15:35;;;;;;;5.00;1.63;;;30.20;1.00;;;;;;5100466;28;20532;-81
2022/06/29 13:18:08;;;;;;;5.60;1.50;;;30.40;1.00;;;;;;5097255;28;20977;-79
2022/06/29 13:20:35;;;;;;;4.93;1.27;;;30.80;1.00;;;;;;5098271;28;20857;-79
2022/06/29 13:23:08;;;;;;;4.27;1.53;;;31.60;1.00;;;;;;5081903;28;20421;-82
2022/06/29 13:25:35;;;;;;;4.80;1.20;;;31.10;1.00;;;;;;5100208;28;20524;-80
2022/06/29 13:28:08;;;;;;;6.20;2.60;;;30.80;1.00;;;;;;5098527;28;21008;-79
2022/06/29 13:30:36;;;;;;;4.13;1.30;;;30.50;1.00;;;;;;5094066;28;20458;-77
2022/06/29 13:33:08;;;;;;;12.23;5.67;;;29.90;1.00;;;;;;5094214;28;20451;-80
2022/06/29 13:35:36;;;;;;;5.63;1.70;;;29.00;1.00;;;;;;5098024;28;20466;-78